sensor_id;sensor_type;location;lat;lon;timestamp;P1;durP1;ratioP1;P2;durP2;ratioP2
55025;SDS011;40925;45.666;18.994;2023-04-25T00:02:04;5.85;;;3.10;;
55025;SDS011;40925;45.666;18.994;2023-04-25T00:04:30;4.80;;;2.88;;
55025;SDS011;40925;45.666;18.994;2023-04-25T00:06:58;5.10;;;3.13;;
55025;SDS011;40925;45.666;18.994;2023-04-25T00:09:28;4.93;;;2.97;;
55025;SDS011;40925;45.666;18.994;2023-04-25T00:11:54;5.28;;;3.20;;
55025;SDS011;40925;45.666;18.994;2023-04-25T00:14:20;5.18;;;3.40;;
55025;SDS011;40925;45.666;18.994;2023-04-25T00:16:46;4.25;;;3.15;;
55025;SDS011;40925;45.666;18.994;2023-04-25T00:19:13;4.93;;;3.50;;
55025;SDS011;40925;45.666;18.994;2023-04-25T00:21:39;7.00;;;4.00;;
55025;SDS011;40925;45.666;18.994;2023-04-25T00:24:06;7.22;;;3.55;;
55025;SDS011;40925;45.666;18.994;2023-04-25T00:26:33;5.82;;;3.53;;
55025;SDS011;40925;45.666;18.994;2023-04-25T00:29:00;4.50;;;3.22;;
55025;SDS011;40925;45.666;18.994;2023-04-25T00:31:26;5.05;;;3.53;;
55025;SDS011;40925;45.666;18.994;2023-04-25T00:33:52;9.00;;;3.78;;
55025;SDS011;40925;45.666;18.994;2023-04-25T00:36:18;6.43;;;3.40;;
55025;SDS011;40925;45.666;18.994;2023-04-25T00:38:44;5.28;;;3.67;;
55025;SDS011;40925;45.666;18.994;2023-04-25T00:41:10;5.82;;;3.70;;
55025;SDS011;40925;45.666;18.994;2023-04-25T00:43:36;4.97;;;3.45;;
55025;SDS011;40925;45.666;18.994;2023-04-25T00:46:02;4.15;;;3.20;;
55025;SDS011;40925;45.666;18.994;2023-04-25T00:48:29;5.88;;;3.30;;
55025;SDS011;40925;45.666;18.994;2023-04-25T00:50:57;4.32;;;3.08;;
55025;SDS011;40925;45.666;18.994;2023-04-25T00:53:24;5.15;;;3.03;;
55025;SDS011;40925;45.666;18.994;2023-04-25T00:55:50;5.65;;;3.55;;
55025;SDS011;40925;45.666;18.994;2023-04-25T00:58:17;4.55;;;3.13;;
55025;SDS011;40925;45.666;18.994;2023-04-25T01:00:43;4.63;;;3.30;;
55025;SDS011;40925;45.666;18.994;2023-04-25T01:03:10;4.75;;;3.25;;
55025;SDS011;40925;45.666;18.994;2023-04-25T01:05:36;4.45;;;3.22;;
55025;SDS011;40925;45.666;18.994;2023-04-25T01:08:02;5.47;;;3.10;;
55025;SDS011;40925;45.666;18.994;2023-04-25T01:10:29;4.05;;;2.65;;
55025;SDS011;40925;45.666;18.994;2023-04-25T01:12:55;3.70;;;2.45;;
55025;SDS011;40925;45.666;18.994;2023-04-25T01:15:21;3.13;;;2.15;;
55025;SDS011;40925;45.666;18.994;2023-04-25T01:17:47;4.43;;;2.63;;
55025;SDS011;40925;45.666;18.994;2023-04-25T01:20:29;3.50;;;2.20;;
55025;SDS011;40925;45.666;18.994;2023-04-25T01:22:57;3.10;;;1.90;;
55025;SDS011;40925;45.666;18.994;2023-04-25T01:25:23;4.45;;;2.10;;
55025;SDS011;40925;45.666;18.994;2023-04-25T01:27:49;2.85;;;2.00;;
55025;SDS011;40925;45.666;18.994;2023-04-25T01:30:15;3.35;;;1.88;;
55025;SDS011;40925;45.666;18.994;2023-04-25T01:32:41;4.50;;;2.20;;
55025;SDS011;40925;45.666;18.994;2023-04-25T01:35:20;3.80;;;2.20;;
55025;SDS011;40925;45.666;18.994;2023-04-25T01:37:47;2.90;;;2.28;;
55025;SDS011;40925;45.666;18.994;2023-04-25T01:40:14;3.38;;;1.95;;
55025;SDS011;40925;45.666;18.994;2023-04-25T01:42:42;2.58;;;1.90;;
55025;SDS011;40925;45.666;18.994;2023-04-25T01:45:08;4.65;;;2.30;;
55025;SDS011;40925;45.666;18.994;2023-04-25T01:47:36;4.95;;;2.20;;
55025;SDS011;40925;45.666;18.994;2023-04-25T01:50:02;3.78;;;1.95;;
55025;SDS011;40925;45.666;18.994;2023-04-25T01:52:29;2.65;;;1.92;;
55025;SDS011;40925;45.666;18.994;2023-04-25T01:54:55;3.00;;;2.10;;
55025;SDS011;40925;45.666;18.994;2023-04-25T01:57:22;3.75;;;2.40;;
55025;SDS011;40925;45.666;18.994;2023-04-25T01:59:48;3.20;;;2.40;;
55025;SDS011;40925;45.666;18.994;2023-04-25T02:02:15;4.43;;;2.35;;
55025;SDS011;40925;45.666;18.994;2023-04-25T02:04:41;4.25;;;2.30;;
55025;SDS011;40925;45.666;18.994;2023-04-25T02:07:07;3.50;;;2.33;;
55025;SDS011;40925;45.666;18.994;2023-04-25T02:09:33;3.88;;;2.30;;
55025;SDS011;40925;45.666;18.994;2023-04-25T02:11:59;3.60;;;2.42;;
55025;SDS011;40925;45.666;18.994;2023-04-25T02:14:25;4.32;;;2.50;;
55025;SDS011;40925;45.666;18.994;2023-04-25T02:16:51;3.85;;;2.58;;
55025;SDS011;40925;45.666;18.994;2023-04-25T02:19:17;3.80;;;2.45;;
55025;SDS011;40925;45.666;18.994;2023-04-25T02:21:43;3.60;;;2.60;;
55025;SDS011;40925;45.666;18.994;2023-04-25T02:24:10;3.67;;;2.60;;
55025;SDS011;40925;45.666;18.994;2023-04-25T02:26:36;3.08;;;2.60;;
55025;SDS011;40925;45.666;18.994;2023-04-25T02:29:02;3.95;;;2.72;;
55025;SDS011;40925;45.666;18.994;2023-04-25T02:31:28;4.13;;;2.60;;
55025;SDS011;40925;45.666;18.994;2023-04-25T02:33:54;4.25;;;2.38;;
55025;SDS011;40925;45.666;18.994;2023-04-25T02:36:20;4.28;;;2.83;;
55025;SDS011;40925;45.666;18.994;2023-04-25T02:38:46;5.10;;;2.83;;
55025;SDS011;40925;45.666;18.994;2023-04-25T02:41:12;3.90;;;2.75;;
55025;SDS011;40925;45.666;18.994;2023-04-25T02:43:39;3.70;;;2.70;;
55025;SDS011;40925;45.666;18.994;2023-04-25T02:46:05;3.35;;;2.55;;
55025;SDS011;40925;45.666;18.994;2023-04-25T02:48:31;4.30;;;2.70;;
55025;SDS011;40925;45.666;18.994;2023-04-25T02:50:57;4.65;;;2.80;;
55025;SDS011;40925;45.666;18.994;2023-04-25T02:53:23;3.38;;;2.50;;
55025;SDS011;40925;45.666;18.994;2023-04-25T02:55:49;4.30;;;2.90;;
55025;SDS011;40925;45.666;18.994;2023-04-25T02:58:17;4.05;;;2.80;;
55025;SDS011;40925;45.666;18.994;2023-04-25T03:00:43;3.80;;;2.80;;
55025;SDS011;40925;45.666;18.994;2023-04-25T03:03:09;3.97;;;3.00;;
55025;SDS011;40925;45.666;18.994;2023-04-25T03:05:35;4.50;;;2.88;;
55025;SDS011;40925;45.666;18.994;2023-04-25T03:08:01;4.35;;;3.10;;
55025;SDS011;40925;45.666;18.994;2023-04-25T03:10:27;3.60;;;2.90;;
55025;SDS011;40925;45.666;18.994;2023-04-25T03:12:54;5.40;;;3.40;;
55025;SDS011;40925;45.666;18.994;2023-04-25T03:15:20;5.57;;;3.10;;
55025;SDS011;40925;45.666;18.994;2023-04-25T03:17:46;4.75;;;3.38;;
55025;SDS011;40925;45.666;18.994;2023-04-25T03:20:12;4.07;;;3.00;;
55025;SDS011;40925;45.666;18.994;2023-04-25T03:22:38;4.60;;;3.33;;
55025;SDS011;40925;45.666;18.994;2023-04-25T03:25:04;4.47;;;3.13;;
55025;SDS011;40925;45.666;18.994;2023-04-25T03:27:30;3.83;;;2.97;;
55025;SDS011;40925;45.666;18.994;2023-04-25T03:29:56;5.13;;;3.20;;
55025;SDS011;40925;45.666;18.994;2023-04-25T03:32:22;4.07;;;3.10;;
55025;SDS011;40925;45.666;18.994;2023-04-25T03:34:48;5.68;;;3.25;;
55025;SDS011;40925;45.666;18.994;2023-04-25T03:37:14;5.28;;;3.30;;
55025;SDS011;40925;45.666;18.994;2023-04-25T03:39:40;5.00;;;3.10;;
55025;SDS011;40925;45.666;18.994;2023-04-25T03:42:06;3.92;;;3.15;;
55025;SDS011;40925;45.666;18.994;2023-04-25T03:44:32;5.63;;;2.90;;
55025;SDS011;40925;45.666;18.994;2023-04-25T03:46:58;7.13;;;3.25;;
55025;SDS011;40925;45.666;18.994;2023-04-25T03:49:24;4.35;;;3.22;;
55025;SDS011;40925;45.666;18.994;2023-04-25T03:51:51;5.80;;;3.15;;
55025;SDS011;40925;45.666;18.994;2023-04-25T03:54:17;4.05;;;3.28;;
55025;SDS011;40925;45.666;18.994;2023-04-25T03:56:43;4.93;;;3.15;;
55025;SDS011;40925;45.666;18.994;2023-04-25T03:59:09;4.88;;;3.00;;
55025;SDS011;40925;45.666;18.994;2023-04-25T04:01:35;5.28;;;3.22;;
55025;SDS011;40925;45.666;18.994;2023-04-25T04:04:01;4.05;;;3.20;;
55025;SDS011;40925;45.666;18.994;2023-04-25T04:06:27;4.25;;;2.90;;
55025;SDS011;40925;45.666;18.994;2023-04-25T04:08:53;5.05;;;3.42;;
55025;SDS011;40925;45.666;18.994;2023-04-25T04:11:20;4.22;;;2.88;;
55025;SDS011;40925;45.666;18.994;2023-04-25T04:13:46;4.03;;;2.88;;
55025;SDS011;40925;45.666;18.994;2023-04-25T04:16:12;4.32;;;2.88;;
55025;SDS011;40925;45.666;18.994;2023-04-25T04:18:38;4.05;;;2.80;;
55025;SDS011;40925;45.666;18.994;2023-04-25T04:21:20;5.03;;;2.80;;
55025;SDS011;40925;45.666;18.994;2023-04-25T04:23:46;4.28;;;2.80;;
55025;SDS011;40925;45.666;18.994;2023-04-25T04:26:13;4.35;;;3.08;;
55025;SDS011;40925;45.666;18.994;2023-04-25T04:28:41;3.50;;;2.83;;
55025;SDS011;40925;45.666;18.994;2023-04-25T04:31:07;5.05;;;2.90;;
55025;SDS011;40925;45.666;18.994;2023-04-25T04:33:34;5.07;;;3.20;;
55025;SDS011;40925;45.666;18.994;2023-04-25T04:36:00;3.70;;;2.80;;
55025;SDS011;40925;45.666;18.994;2023-04-25T04:38:28;7.95;;;3.60;;
55025;SDS011;40925;45.666;18.994;2023-04-25T04:40:54;5.20;;;3.33;;
55025;SDS011;40925;45.666;18.994;2023-04-25T04:43:20;4.95;;;3.40;;
55025;SDS011;40925;45.666;18.994;2023-04-25T04:45:48;4.50;;;3.28;;
55025;SDS011;40925;45.666;18.994;2023-04-25T04:48:15;4.43;;;3.50;;
55025;SDS011;40925;45.666;18.994;2023-04-25T04:50:42;5.50;;;3.80;;
55025;SDS011;40925;45.666;18.994;2023-04-25T04:53:10;8.98;;;3.85;;
55025;SDS011;40925;45.666;18.994;2023-04-25T04:55:37;5.20;;;3.85;;
55025;SDS011;40925;45.666;18.994;2023-04-25T04:58:03;5.95;;;3.90;;
55025;SDS011;40925;45.666;18.994;2023-04-25T05:00:29;5.93;;;3.65;;
55025;SDS011;40925;45.666;18.994;2023-04-25T05:02:55;5.35;;;4.20;;
55025;SDS011;40925;45.666;18.994;2023-04-25T05:05:22;5.03;;;3.70;;
55025;SDS011;40925;45.666;18.994;2023-04-25T05:10:51;5.10;;;4.10;;
55025;SDS011;40925;45.666;18.994;2023-04-25T05:13:17;7.65;;;4.32;;
55025;SDS011;40925;45.666;18.994;2023-04-25T05:15:43;6.93;;;4.18;;
55025;SDS011;40925;45.666;18.994;2023-04-25T05:18:09;6.85;;;3.67;;
55025;SDS011;40925;45.666;18.994;2023-04-25T05:20:35;6.20;;;3.63;;
55025;SDS011;40925;45.666;18.994;2023-04-25T05:23:01;4.78;;;3.70;;
55025;SDS011;40925;45.666;18.994;2023-04-25T05:25:27;4.68;;;3.60;;
55025;SDS011;40925;45.666;18.994;2023-04-25T05:27:53;5.35;;;3.55;;
55025;SDS011;40925;45.666;18.994;2023-04-25T05:30:19;5.18;;;3.47;;
55025;SDS011;40925;45.666;18.994;2023-04-25T05:32:45;5.88;;;3.53;;
55025;SDS011;40925;45.666;18.994;2023-04-25T05:35:12;6.47;;;4.22;;
55025;SDS011;40925;45.666;18.994;2023-04-25T05:37:38;5.97;;;3.60;;
55025;SDS011;40925;45.666;18.994;2023-04-25T05:40:05;5.63;;;3.75;;
55025;SDS011;40925;45.666;18.994;2023-04-25T05:42:32;5.68;;;3.55;;
55025;SDS011;40925;45.666;18.994;2023-04-25T05:44:58;5.22;;;3.50;;
55025;SDS011;40925;45.666;18.994;2023-04-25T05:47:24;5.45;;;3.00;;
55025;SDS011;40925;45.666;18.994;2023-04-25T05:49:50;4.63;;;3.20;;
55025;SDS011;40925;45.666;18.994;2023-04-25T05:52:16;5.63;;;3.60;;
55025;SDS011;40925;45.666;18.994;2023-04-25T05:54:42;4.93;;;3.42;;
55025;SDS011;40925;45.666;18.994;2023-04-25T05:57:08;5.68;;;3.63;;
55025;SDS011;40925;45.666;18.994;2023-04-25T05:59:34;3.78;;;2.88;;
55025;SDS011;40925;45.666;18.994;2023-04-25T06:02:01;4.47;;;3.03;;
55025;SDS011;40925;45.666;18.994;2023-04-25T06:04:27;4.10;;;2.97;;
55025;SDS011;40925;45.666;18.994;2023-04-25T06:06:53;4.57;;;3.03;;
55025;SDS011;40925;45.666;18.994;2023-04-25T06:09:19;4.35;;;3.40;;
55025;SDS011;40925;45.666;18.994;2023-04-25T06:11:45;6.15;;;3.35;;
55025;SDS011;40925;45.666;18.994;2023-04-25T06:14:11;3.53;;;2.88;;
55025;SDS011;40925;45.666;18.994;2023-04-25T06:16:37;4.28;;;3.10;;
55025;SDS011;40925;45.666;18.994;2023-04-25T06:19:03;4.55;;;3.03;;
55025;SDS011;40925;45.666;18.994;2023-04-25T06:21:29;6.47;;;2.92;;
55025;SDS011;40925;45.666;18.994;2023-04-25T06:23:56;4.25;;;2.92;;
55025;SDS011;40925;45.666;18.994;2023-04-25T06:26:22;4.50;;;2.90;;
55025;SDS011;40925;45.666;18.994;2023-04-25T06:28:48;4.30;;;3.10;;
55025;SDS011;40925;45.666;18.994;2023-04-25T06:31:14;4.47;;;2.83;;
55025;SDS011;40925;45.666;18.994;2023-04-25T06:33:40;4.22;;;2.85;;
55025;SDS011;40925;45.666;18.994;2023-04-25T06:36:06;4.05;;;3.00;;
55025;SDS011;40925;45.666;18.994;2023-04-25T06:38:33;4.40;;;2.80;;
55025;SDS011;40925;45.666;18.994;2023-04-25T06:40:59;4.80;;;2.88;;
55025;SDS011;40925;45.666;18.994;2023-04-25T06:43:25;3.63;;;2.70;;
55025;SDS011;40925;45.666;18.994;2023-04-25T06:45:51;5.40;;;3.20;;
55025;SDS011;40925;45.666;18.994;2023-04-25T06:48:17;4.43;;;3.08;;
55025;SDS011;40925;45.666;18.994;2023-04-25T06:50:43;3.83;;;2.85;;
55025;SDS011;40925;45.666;18.994;2023-04-25T06:55:55;5.40;;;3.17;;
55025;SDS011;40925;45.666;18.994;2023-04-25T06:58:21;5.18;;;3.28;;
55025;SDS011;40925;45.666;18.994;2023-04-25T07:00:47;3.20;;;2.40;;
55025;SDS011;40925;45.666;18.994;2023-04-25T07:03:13;3.97;;;2.45;;
55025;SDS011;40925;45.666;18.994;2023-04-25T07:05:39;4.72;;;2.88;;
55025;SDS011;40925;45.666;18.994;2023-04-25T07:08:06;5.03;;;2.80;;
55025;SDS011;40925;45.666;18.994;2023-04-25T07:10:32;4.07;;;2.45;;
55025;SDS011;40925;45.666;18.994;2023-04-25T07:12:58;4.03;;;2.50;;
55025;SDS011;40925;45.666;18.994;2023-04-25T07:15:24;3.45;;;2.45;;
55025;SDS011;40925;45.666;18.994;2023-04-25T07:17:50;4.72;;;2.92;;
55025;SDS011;40925;45.666;18.994;2023-04-25T07:20:16;6.10;;;2.50;;
55025;SDS011;40925;45.666;18.994;2023-04-25T07:22:43;4.57;;;3.15;;
55025;SDS011;40925;45.666;18.994;2023-04-25T07:25:09;4.65;;;2.50;;
55025;SDS011;40925;45.666;18.994;2023-04-25T07:27:35;4.10;;;2.60;;
55025;SDS011;40925;45.666;18.994;2023-04-25T07:30:01;4.65;;;2.80;;
55025;SDS011;40925;45.666;18.994;2023-04-25T07:32:28;4.32;;;2.63;;
55025;SDS011;40925;45.666;18.994;2023-04-25T07:34:54;4.93;;;2.88;;
55025;SDS011;40925;45.666;18.994;2023-04-25T07:37:21;3.80;;;2.40;;
55025;SDS011;40925;45.666;18.994;2023-04-25T07:39:46;6.10;;;2.58;;
55025;SDS011;40925;45.666;18.994;2023-04-25T07:42:12;6.35;;;2.55;;
55025;SDS011;40925;45.666;18.994;2023-04-25T07:44:38;4.93;;;2.83;;
55025;SDS011;40925;45.666;18.994;2023-04-25T07:47:08;6.07;;;2.70;;
55025;SDS011;40925;45.666;18.994;2023-04-25T07:49:34;4.82;;;3.00;;
55025;SDS011;40925;45.666;18.994;2023-04-25T07:52:01;7.80;;;3.88;;
55025;SDS011;40925;45.666;18.994;2023-04-25T07:54:27;4.00;;;2.40;;
55025;SDS011;40925;45.666;18.994;2023-04-25T07:56:53;3.10;;;2.30;;
55025;SDS011;40925;45.666;18.994;2023-04-25T07:59:19;4.53;;;2.55;;
55025;SDS011;40925;45.666;18.994;2023-04-25T08:01:45;3.65;;;2.70;;
55025;SDS011;40925;45.666;18.994;2023-04-25T08:04:11;4.78;;;2.40;;
55025;SDS011;40925;45.666;18.994;2023-04-25T08:06:36;4.75;;;2.60;;
55025;SDS011;40925;45.666;18.994;2023-04-25T08:09:02;3.75;;;2.40;;
55025;SDS011;40925;45.666;18.994;2023-04-25T08:11:29;4.43;;;2.50;;
55025;SDS011;40925;45.666;18.994;2023-04-25T08:13:55;7.18;;;2.50;;
55025;SDS011;40925;45.666;18.994;2023-04-25T08:16:21;3.83;;;2.60;;
55025;SDS011;40925;45.666;18.994;2023-04-25T08:18:47;5.82;;;2.47;;
55025;SDS011;40925;45.666;18.994;2023-04-25T08:21:13;5.47;;;2.60;;
55025;SDS011;40925;45.666;18.994;2023-04-25T08:23:40;3.78;;;2.17;;
55025;SDS011;40925;45.666;18.994;2023-04-25T08:26:06;3.70;;;2.30;;
55025;SDS011;40925;45.666;18.994;2023-04-25T08:28:32;4.18;;;2.38;;
55025;SDS011;40925;45.666;18.994;2023-04-25T08:30:58;6.40;;;2.47;;
55025;SDS011;40925;45.666;18.994;2023-04-25T08:33:24;4.75;;;2.30;;
55025;SDS011;40925;45.666;18.994;2023-04-25T08:35:51;3.45;;;2.30;;
55025;SDS011;40925;45.666;18.994;2023-04-25T08:38:17;4.28;;;2.72;;
55025;SDS011;40925;45.666;18.994;2023-04-25T08:40:44;3.67;;;2.17;;
55025;SDS011;40925;45.666;18.994;2023-04-25T08:43:15;3.67;;;2.42;;
55025;SDS011;40925;45.666;18.994;2023-04-25T08:45:43;4.53;;;2.40;;
55025;SDS011;40925;45.666;18.994;2023-04-25T08:48:12;6.20;;;2.40;;
55025;SDS011;40925;45.666;18.994;2023-04-25T08:50:39;4.35;;;2.50;;
55025;SDS011;40925;45.666;18.994;2023-04-25T08:53:06;3.20;;;2.60;;
55025;SDS011;40925;45.666;18.994;2023-04-25T08:55:36;5.25;;;2.47;;
55025;SDS011;40925;45.666;18.994;2023-04-25T08:58:03;6.13;;;2.58;;
55025;SDS011;40925;45.666;18.994;2023-04-25T09:00:30;4.55;;;2.40;;
55025;SDS011;40925;45.666;18.994;2023-04-25T09:02:57;3.78;;;2.47;;
55025;SDS011;40925;45.666;18.994;2023-04-25T09:05:24;4.43;;;2.60;;
55025;SDS011;40925;45.666;18.994;2023-04-25T09:07:50;5.70;;;2.35;;
55025;SDS011;40925;45.666;18.994;2023-04-25T09:10:16;3.50;;;2.53;;
55025;SDS011;40925;45.666;18.994;2023-04-25T09:12:42;4.10;;;2.70;;
55025;SDS011;40925;45.666;18.994;2023-04-25T09:15:09;4.00;;;2.30;;
55025;SDS011;40925;45.666;18.994;2023-04-25T09:17:36;4.18;;;2.40;;
55025;SDS011;40925;45.666;18.994;2023-04-25T09:20:14;7.40;;;2.35;;
55025;SDS011;40925;45.666;18.994;2023-04-25T09:22:40;3.55;;;2.60;;
55025;SDS011;40925;45.666;18.994;2023-04-25T09:25:08;2.95;;;2.22;;
55025;SDS011;40925;45.666;18.994;2023-04-25T09:27:34;3.38;;;2.20;;
55025;SDS011;40925;45.666;18.994;2023-04-25T09:30:00;3.63;;;2.33;;
55025;SDS011;40925;45.666;18.994;2023-04-25T09:32:27;3.20;;;2.08;;
55025;SDS011;40925;45.666;18.994;2023-04-25T09:34:54;3.70;;;2.20;;
55025;SDS011;40925;45.666;18.994;2023-04-25T09:37:22;4.05;;;1.98;;
55025;SDS011;40925;45.666;18.994;2023-04-25T09:40:10;2.55;;;1.90;;
55025;SDS011;40925;45.666;18.994;2023-04-25T09:42:40;4.03;;;2.10;;
55025;SDS011;40925;45.666;18.994;2023-04-25T09:45:07;4.03;;;2.28;;
55025;SDS011;40925;45.666;18.994;2023-04-25T09:47:36;4.30;;;2.28;;
55025;SDS011;40925;45.666;18.994;2023-04-25T09:50:04;5.30;;;2.40;;
55025;SDS011;40925;45.666;18.994;2023-04-25T09:55:42;3.67;;;1.90;;
55025;SDS011;40925;45.666;18.994;2023-04-25T09:58:10;3.80;;;1.83;;
55025;SDS011;40925;45.666;18.994;2023-04-25T10:00:37;4.47;;;1.98;;
55025;SDS011;40925;45.666;18.994;2023-04-25T10:03:03;3.33;;;1.75;;
55025;SDS011;40925;45.666;18.994;2023-04-25T10:05:32;2.15;;;1.80;;
55025;SDS011;40925;45.666;18.994;2023-04-25T10:08:02;4.50;;;1.90;;
55025;SDS011;40925;45.666;18.994;2023-04-25T10:10:29;4.80;;;2.00;;
55025;SDS011;40925;45.666;18.994;2023-04-25T10:12:58;2.70;;;1.92;;
55025;SDS011;40925;45.666;18.994;2023-04-25T10:15:24;3.08;;;2.10;;
55025;SDS011;40925;45.666;18.994;2023-04-25T10:17:50;4.65;;;2.00;;
55025;SDS011;40925;45.666;18.994;2023-04-25T10:20:17;4.75;;;1.98;;
55025;SDS011;40925;45.666;18.994;2023-04-25T10:22:44;3.17;;;1.90;;
55025;SDS011;40925;45.666;18.994;2023-04-25T10:25:12;2.28;;;1.80;;
55025;SDS011;40925;45.666;18.994;2023-04-25T10:33:39;4.82;;;2.40;;
55025;SDS011;40925;45.666;18.994;2023-04-25T10:36:21;5.45;;;2.10;;
55025;SDS011;40925;45.666;18.994;2023-04-25T10:38:48;3.38;;;2.15;;
55025;SDS011;40925;45.666;18.994;2023-04-25T10:41:21;4.90;;;1.90;;
55025;SDS011;40925;45.666;18.994;2023-04-25T10:43:48;5.40;;;2.00;;
55025;SDS011;40925;45.666;18.994;2023-04-25T10:48:48;3.83;;;2.20;;
55025;SDS011;40925;45.666;18.994;2023-04-25T10:51:25;3.05;;;1.70;;
55025;SDS011;40925;45.666;18.994;2023-04-25T10:56:20;3.10;;;1.58;;
55025;SDS011;40925;45.666;18.994;2023-04-25T10:59:06;5.05;;;2.22;;
55025;SDS011;40925;45.666;18.994;2023-04-25T11:01:36;5.22;;;1.80;;
55025;SDS011;40925;45.666;18.994;2023-04-25T11:04:02;5.05;;;2.75;;
55025;SDS011;40925;45.666;18.994;2023-04-25T11:06:34;5.20;;;3.05;;
55025;SDS011;40925;45.666;18.994;2023-04-25T11:09:02;4.28;;;1.80;;
55025;SDS011;40925;45.666;18.994;2023-04-25T11:11:33;2.38;;;1.33;;
55025;SDS011;40925;45.666;18.994;2023-04-25T11:14:02;3.13;;;1.60;;
55025;SDS011;40925;45.666;18.994;2023-04-25T11:16:28;3.35;;;1.48;;
55025;SDS011;40925;45.666;18.994;2023-04-25T11:18:56;4.20;;;1.40;;
55025;SDS011;40925;45.666;18.994;2023-04-25T11:21:22;2.10;;;1.40;;
55025;SDS011;40925;45.666;18.994;2023-04-25T11:23:48;3.45;;;1.85;;
55025;SDS011;40925;45.666;18.994;2023-04-25T11:26:13;4.55;;;1.65;;
55025;SDS011;40925;45.666;18.994;2023-04-25T11:28:58;5.53;;;2.28;;
55025;SDS011;40925;45.666;18.994;2023-04-25T11:31:28;7.03;;;1.83;;
55025;SDS011;40925;45.666;18.994;2023-04-25T11:33:56;4.90;;;1.80;;
55025;SDS011;40925;45.666;18.994;2023-04-25T11:36:23;2.13;;;1.42;;
55025;SDS011;40925;45.666;18.994;2023-04-25T11:38:50;5.75;;;1.92;;
55025;SDS011;40925;45.666;18.994;2023-04-25T11:41:16;4.45;;;1.70;;
55025;SDS011;40925;45.666;18.994;2023-04-25T11:43:43;2.80;;;1.50;;
55025;SDS011;40925;45.666;18.994;2023-04-25T11:46:09;4.00;;;1.60;;
55025;SDS011;40925;45.666;18.994;2023-04-25T11:48:39;3.70;;;1.70;;
55025;SDS011;40925;45.666;18.994;2023-04-25T11:51:05;3.78;;;1.63;;
55025;SDS011;40925;45.666;18.994;2023-04-25T11:53:31;3.22;;;1.60;;
55025;SDS011;40925;45.666;18.994;2023-04-25T11:55:57;2.20;;;1.42;;
55025;SDS011;40925;45.666;18.994;2023-04-25T11:58:24;3.65;;;1.70;;
55025;SDS011;40925;45.666;18.994;2023-04-25T12:00:51;3.72;;;1.60;;
55025;SDS011;40925;45.666;18.994;2023-04-25T12:03:17;3.10;;;1.80;;
55025;SDS011;40925;45.666;18.994;2023-04-25T12:05:44;3.97;;;2.60;;
55025;SDS011;40925;45.666;18.994;2023-04-25T12:08:11;2.58;;;1.60;;
55025;SDS011;40925;45.666;18.994;2023-04-25T12:10:38;2.33;;;1.70;;
55025;SDS011;40925;45.666;18.994;2023-04-25T12:13:20;2.70;;;1.67;;
55025;SDS011;40925;45.666;18.994;2023-04-25T12:15:47;4.13;;;1.85;;
55025;SDS011;40925;45.666;18.994;2023-04-25T12:18:13;4.10;;;1.50;;
55025;SDS011;40925;45.666;18.994;2023-04-25T12:20:41;4.65;;;1.70;;
55025;SDS011;40925;45.666;18.994;2023-04-25T12:23:07;3.67;;;1.50;;
55025;SDS011;40925;45.666;18.994;2023-04-25T12:28:36;3.42;;;1.77;;
55025;SDS011;40925;45.666;18.994;2023-04-25T12:33:23;4.60;;;2.08;;
55025;SDS011;40925;45.666;18.994;2023-04-25T12:35:49;4.38;;;1.70;;
55025;SDS011;40925;45.666;18.994;2023-04-25T12:38:22;4.35;;;1.73;;
55025;SDS011;40925;45.666;18.994;2023-04-25T12:41:00;4.95;;;1.95;;
55025;SDS011;40925;45.666;18.994;2023-04-25T12:43:27;5.00;;;1.85;;
55025;SDS011;40925;45.666;18.994;2023-04-25T12:45:53;2.78;;;1.60;;
55025;SDS011;40925;45.666;18.994;2023-04-25T12:48:20;3.25;;;1.60;;
55025;SDS011;40925;45.666;18.994;2023-04-25T12:50:46;5.63;;;1.70;;
55025;SDS011;40925;45.666;18.994;2023-04-25T12:53:19;2.65;;;1.50;;
55025;SDS011;40925;45.666;18.994;2023-04-25T12:55:46;2.10;;;1.30;;
55025;SDS011;40925;45.666;18.994;2023-04-25T12:58:15;4.57;;;1.85;;
55025;SDS011;40925;45.666;18.994;2023-04-25T13:00:43;3.28;;;1.55;;
55025;SDS011;40925;45.666;18.994;2023-04-25T13:03:10;2.17;;;1.40;;
55025;SDS011;40925;45.666;18.994;2023-04-25T13:05:37;2.13;;;1.52;;
55025;SDS011;40925;45.666;18.994;2023-04-25T13:08:03;4.30;;;1.42;;
55025;SDS011;40925;45.666;18.994;2023-04-25T13:10:29;3.90;;;1.50;;
55025;SDS011;40925;45.666;18.994;2023-04-25T13:12:55;3.83;;;1.50;;
55025;SDS011;40925;45.666;18.994;2023-04-25T13:15:20;3.25;;;1.88;;
55025;SDS011;40925;45.666;18.994;2023-04-25T13:17:46;3.17;;;1.80;;
55025;SDS011;40925;45.666;18.994;2023-04-25T13:20:12;5.25;;;1.60;;
55025;SDS011;40925;45.666;18.994;2023-04-25T13:22:40;2.88;;;1.50;;
55025;SDS011;40925;45.666;18.994;2023-04-25T13:25:07;5.10;;;1.50;;
55025;SDS011;40925;45.666;18.994;2023-04-25T13:27:33;7.90;;;1.50;;
55025;SDS011;40925;45.666;18.994;2023-04-25T13:30:01;3.47;;;1.70;;
55025;SDS011;40925;45.666;18.994;2023-04-25T13:32:32;3.72;;;1.80;;
55025;SDS011;40925;45.666;18.994;2023-04-25T13:34:59;4.53;;;1.70;;
55025;SDS011;40925;45.666;18.994;2023-04-25T13:37:25;2.17;;;1.50;;
55025;SDS011;40925;45.666;18.994;2023-04-25T13:39:51;5.50;;;1.63;;
55025;SDS011;40925;45.666;18.994;2023-04-25T13:42:17;3.90;;;1.88;;
55025;SDS011;40925;45.666;18.994;2023-04-25T13:44:42;6.25;;;1.90;;
55025;SDS011;40925;45.666;18.994;2023-04-25T13:47:08;4.25;;;2.10;;
55025;SDS011;40925;45.666;18.994;2023-04-25T13:49:34;3.38;;;2.00;;
55025;SDS011;40925;45.666;18.994;2023-04-25T13:52:00;5.88;;;2.05;;
55025;SDS011;40925;45.666;18.994;2023-04-25T13:54:25;3.55;;;1.65;;
55025;SDS011;40925;45.666;18.994;2023-04-25T13:56:51;2.65;;;1.48;;
55025;SDS011;40925;45.666;18.994;2023-04-25T13:59:20;2.95;;;1.52;;
55025;SDS011;40925;45.666;18.994;2023-04-25T14:01:46;2.92;;;1.58;;
55025;SDS011;40925;45.666;18.994;2023-04-25T14:04:12;4.05;;;2.10;;
55025;SDS011;40925;45.666;18.994;2023-04-25T14:06:38;5.07;;;2.70;;
55025;SDS011;40925;45.666;18.994;2023-04-25T14:09:03;3.00;;;2.22;;
55025;SDS011;40925;45.666;18.994;2023-04-25T14:11:31;4.15;;;1.60;;
55025;SDS011;40925;45.666;18.994;2023-04-25T14:13:57;4.30;;;1.63;;
55025;SDS011;40925;45.666;18.994;2023-04-25T14:16:22;3.15;;;1.67;;
55025;SDS011;40925;45.666;18.994;2023-04-25T14:18:48;4.07;;;1.88;;
55025;SDS011;40925;45.666;18.994;2023-04-25T14:21:14;3.22;;;2.10;;
55025;SDS011;40925;45.666;18.994;2023-04-25T14:23:40;3.35;;;1.60;;
55025;SDS011;40925;45.666;18.994;2023-04-25T14:26:06;2.90;;;1.80;;
55025;SDS011;40925;45.666;18.994;2023-04-25T14:28:32;5.13;;;1.98;;
55025;SDS011;40925;45.666;18.994;2023-04-25T14:30:57;2.78;;;1.52;;
55025;SDS011;40925;45.666;18.994;2023-04-25T14:33:23;4.38;;;1.80;;
55025;SDS011;40925;45.666;18.994;2023-04-25T14:35:49;4.47;;;1.70;;
55025;SDS011;40925;45.666;18.994;2023-04-25T14:38:15;5.30;;;1.50;;
55025;SDS011;40925;45.666;18.994;2023-04-25T14:40:41;5.63;;;1.80;;
55025;SDS011;40925;45.666;18.994;2023-04-25T14:43:07;4.70;;;1.73;;
55025;SDS011;40925;45.666;18.994;2023-04-25T14:45:33;3.78;;;1.50;;
55025;SDS011;40925;45.666;18.994;2023-04-25T14:47:59;4.43;;;2.05;;
55025;SDS011;40925;45.666;18.994;2023-04-25T14:50:24;4.00;;;2.08;;
55025;SDS011;40925;45.666;18.994;2023-04-25T14:52:50;3.28;;;1.73;;
55025;SDS011;40925;45.666;18.994;2023-04-25T14:55:17;3.75;;;1.70;;
55025;SDS011;40925;45.666;18.994;2023-04-25T14:57:43;3.38;;;1.88;;